sensor_id;sensor_type;location;lat;lon;timestamp;P1;durP1;ratioP1;P2;durP2;ratioP2
14903;SDS011;7543;53.148;8.234;2023-09-08T00:00:20;6.32;;;4.00;;
14903;SDS011;7543;53.148;8.234;2023-09-08T00:02:48;4.82;;;3.53;;
14903;SDS011;7543;53.148;8.234;2023-09-08T00:05:16;5.35;;;3.70;;
14903;SDS011;7543;53.148;8.234;2023-09-08T00:07:46;4.80;;;3.80;;
14903;SDS011;7543;53.148;8.234;2023-09-08T00:10:15;5.35;;;3.53;;
14903;SDS011;7543;53.148;8.234;2023-09-08T00:12:43;4.60;;;3.42;;
14903;SDS011;7543;53.148;8.234;2023-09-08T00:15:12;5.05;;;3.80;;
14903;SDS011;7543;53.148;8.234;2023-09-08T00:17:40;5.43;;;3.63;;
14903;SDS011;7543;53.148;8.234;2023-09-08T00:20:09;4.40;;;3.40;;
14903;SDS011;7543;53.148;8.234;2023-09-08T00:22:37;4.93;;;3.53;;
14903;SDS011;7543;53.148;8.234;2023-09-08T00:25:07;5.13;;;3.50;;
14903;SDS011;7543;53.148;8.234;2023-09-08T00:27:36;5.50;;;3.80;;
14903;SDS011;7543;53.148;8.234;2023-09-08T00:30:05;7.65;;;3.90;;
14903;SDS011;7543;53.148;8.234;2023-09-08T00:32:34;4.50;;;3.90;;
14903;SDS011;7543;53.148;8.234;2023-09-08T00:35:05;5.07;;;3.57;;
14903;SDS011;7543;53.148;8.234;2023-09-08T00:37:34;4.72;;;3.50;;
14903;SDS011;7543;53.148;8.234;2023-09-08T00:40:02;7.43;;;3.80;;
14903;SDS011;7543;53.148;8.234;2023-09-08T00:42:32;7.57;;;4.20;;
14903;SDS011;7543;53.148;8.234;2023-09-08T00:45:01;7.78;;;3.45;;
14903;SDS011;7543;53.148;8.234;2023-09-08T00:47:29;5.70;;;3.43;;
14903;SDS011;7543;53.148;8.234;2023-09-08T00:49:57;6.03;;;3.43;;
14903;SDS011;7543;53.148;8.234;2023-09-08T00:52:26;7.57;;;3.53;;
14903;SDS011;7543;53.148;8.234;2023-09-08T00:54:59;5.70;;;3.50;;
14903;SDS011;7543;53.148;8.234;2023-09-08T00:57:27;4.67;;;3.73;;
14903;SDS011;7543;53.148;8.234;2023-09-08T00:59:57;7.27;;;3.80;;
14903;SDS011;7543;53.148;8.234;2023-09-08T01:02:25;5.97;;;3.25;;
14903;SDS011;7543;53.148;8.234;2023-09-08T01:04:54;5.27;;;3.60;;
14903;SDS011;7543;53.148;8.234;2023-09-08T01:07:22;4.87;;;3.90;;
14903;SDS011;7543;53.148;8.234;2023-09-08T01:09:51;4.45;;;3.55;;
14903;SDS011;7543;53.148;8.234;2023-09-08T01:12:19;6.57;;;3.80;;
14903;SDS011;7543;53.148;8.234;2023-09-08T01:14:47;5.90;;;4.13;;
14903;SDS011;7543;53.148;8.234;2023-09-08T01:17:18;4.57;;;3.67;;
14903;SDS011;7543;53.148;8.234;2023-09-08T01:19:47;5.07;;;3.20;;
14903;SDS011;7543;53.148;8.234;2023-09-08T01:22:22;5.27;;;3.80;;
14903;SDS011;7543;53.148;8.234;2023-09-08T01:25:16;6.70;;;3.97;;
14903;SDS011;7543;53.148;8.234;2023-09-08T01:27:47;5.40;;;3.43;;
14903;SDS011;7543;53.148;8.234;2023-09-08T01:30:18;4.80;;;3.77;;
14903;SDS011;7543;53.148;8.234;2023-09-08T01:32:46;4.60;;;3.47;;
14903;SDS011;7543;53.148;8.234;2023-09-08T01:35:15;5.77;;;3.90;;
14903;SDS011;7543;53.148;8.234;2023-09-08T01:37:44;4.20;;;3.40;;
14903;SDS011;7543;53.148;8.234;2023-09-08T01:40:13;6.03;;;3.73;;
14903;SDS011;7543;53.148;8.234;2023-09-08T01:42:43;6.72;;;3.67;;
14903;SDS011;7543;53.148;8.234;2023-09-08T01:45:12;5.93;;;3.90;;
14903;SDS011;7543;53.148;8.234;2023-09-08T01:47:40;8.33;;;3.73;;
14903;SDS011;7543;53.148;8.234;2023-09-08T01:50:09;6.47;;;3.53;;
14903;SDS011;7543;53.148;8.234;2023-09-08T01:52:37;4.50;;;3.87;;
14903;SDS011;7543;53.148;8.234;2023-09-08T01:55:06;5.40;;;3.80;;
14903;SDS011;7543;53.148;8.234;2023-09-08T01:57:35;4.60;;;3.40;;
14903;SDS011;7543;53.148;8.234;2023-09-08T02:00:05;4.87;;;3.60;;
14903;SDS011;7543;53.148;8.234;2023-09-08T02:02:39;6.47;;;3.87;;
14903;SDS011;7543;53.148;8.234;2023-09-08T02:05:08;7.20;;;4.40;;
14903;SDS011;7543;53.148;8.234;2023-09-08T02:07:36;7.10;;;4.23;;
14903;SDS011;7543;53.148;8.234;2023-09-08T02:10:05;5.67;;;3.90;;
14903;SDS011;7543;53.148;8.234;2023-09-08T02:12:33;4.57;;;3.50;;
14903;SDS011;7543;53.148;8.234;2023-09-08T02:15:02;5.03;;;3.70;;
14903;SDS011;7543;53.148;8.234;2023-09-08T02:17:33;5.03;;;4.03;;
14903;SDS011;7543;53.148;8.234;2023-09-08T02:20:01;6.03;;;4.30;;
14903;SDS011;7543;53.148;8.234;2023-09-08T02:22:30;4.63;;;3.80;;
14903;SDS011;7543;53.148;8.234;2023-09-08T02:24:58;5.10;;;3.70;;
14903;SDS011;7543;53.148;8.234;2023-09-08T02:27:27;5.90;;;3.70;;
14903;SDS011;7543;53.148;8.234;2023-09-08T02:29:56;5.85;;;3.45;;
14903;SDS011;7543;53.148;8.234;2023-09-08T02:32:24;6.40;;;4.10;;
14903;SDS011;7543;53.148;8.234;2023-09-08T02:34:54;6.47;;;4.10;;
14903;SDS011;7543;53.148;8.234;2023-09-08T02:37:23;5.20;;;3.77;;
14903;SDS011;7543;53.148;8.234;2023-09-08T02:39:51;5.60;;;4.20;;
14903;SDS011;7543;53.148;8.234;2023-09-08T02:42:19;5.50;;;3.67;;
14903;SDS011;7543;53.148;8.234;2023-09-08T02:44:48;6.33;;;4.03;;
14903;SDS011;7543;53.148;8.234;2023-09-08T02:47:16;5.00;;;3.63;;
14903;SDS011;7543;53.148;8.234;2023-09-08T02:49:46;6.63;;;3.93;;
14903;SDS011;7543;53.148;8.234;2023-09-08T02:52:16;4.30;;;3.50;;
14903;SDS011;7543;53.148;8.234;2023-09-08T02:54:46;6.03;;;3.87;;
14903;SDS011;7543;53.148;8.234;2023-09-08T02:57:14;5.40;;;4.00;;
14903;SDS011;7543;53.148;8.234;2023-09-08T02:59:43;5.87;;;3.90;;
14903;SDS011;7543;53.148;8.234;2023-09-08T03:02:17;5.20;;;4.00;;
14903;SDS011;7543;53.148;8.234;2023-09-08T03:04:45;5.03;;;3.67;;
14903;SDS011;7543;53.148;8.234;2023-09-08T03:07:13;6.07;;;3.77;;
14903;SDS011;7543;53.148;8.234;2023-09-08T03:09:44;5.33;;;3.90;;
14903;SDS011;7543;53.148;8.234;2023-09-08T03:12:12;6.43;;;3.90;;
14903;SDS011;7543;53.148;8.234;2023-09-08T03:14:40;5.37;;;3.63;;
14903;SDS011;7543;53.148;8.234;2023-09-08T03:17:09;5.93;;;3.70;;
14903;SDS011;7543;53.148;8.234;2023-09-08T03:19:37;5.60;;;3.90;;
14903;SDS011;7543;53.148;8.234;2023-09-08T03:22:07;4.73;;;3.90;;
14903;SDS011;7543;53.148;8.234;2023-09-08T03:24:37;5.20;;;3.67;;
14903;SDS011;7543;53.148;8.234;2023-09-08T03:27:05;4.60;;;3.50;;
14903;SDS011;7543;53.148;8.234;2023-09-08T03:29:34;5.63;;;3.67;;
14903;SDS011;7543;53.148;8.234;2023-09-08T03:32:02;4.90;;;3.67;;
14903;SDS011;7543;53.148;8.234;2023-09-08T03:34:31;5.33;;;3.80;;
14903;SDS011;7543;53.148;8.234;2023-09-08T03:37:00;6.17;;;3.77;;
14903;SDS011;7543;53.148;8.234;2023-09-08T03:39:28;5.07;;;3.70;;
14903;SDS011;7543;53.148;8.234;2023-09-08T03:41:58;7.50;;;4.27;;
14903;SDS011;7543;53.148;8.234;2023-09-08T03:44:26;5.70;;;4.30;;
14903;SDS011;7543;53.148;8.234;2023-09-08T03:46:55;7.13;;;4.13;;
14903;SDS011;7543;53.148;8.234;2023-09-08T03:49:23;5.53;;;4.17;;
14903;SDS011;7543;53.148;8.234;2023-09-08T03:51:51;7.17;;;4.23;;
14903;SDS011;7543;53.148;8.234;2023-09-08T03:54:20;8.93;;;4.40;;
14903;SDS011;7543;53.148;8.234;2023-09-08T03:56:48;8.47;;;4.70;;
14903;SDS011;7543;53.148;8.234;2023-09-08T03:59:18;10.90;;;4.70;;
14903;SDS011;7543;53.148;8.234;2023-09-08T04:01:46;6.43;;;4.50;;
14903;SDS011;7543;53.148;8.234;2023-09-08T04:04:15;5.53;;;4.00;;
14903;SDS011;7543;53.148;8.234;2023-09-08T04:06:43;6.23;;;3.90;;
14903;SDS011;7543;53.148;8.234;2023-09-08T04:09:11;7.67;;;4.37;;
14903;SDS011;7543;53.148;8.234;2023-09-08T04:11:40;5.53;;;4.23;;
14903;SDS011;7543;53.148;8.234;2023-09-08T04:14:11;5.67;;;4.10;;
14903;SDS011;7543;53.148;8.234;2023-09-08T04:16:41;6.67;;;4.37;;
14903;SDS011;7543;53.148;8.234;2023-09-08T04:19:09;6.83;;;4.43;;
14903;SDS011;7543;53.148;8.234;2023-09-08T04:21:38;5.93;;;4.00;;
14903;SDS011;7543;53.148;8.234;2023-09-08T04:24:06;6.67;;;4.13;;
14903;SDS011;7543;53.148;8.234;2023-09-08T04:26:37;6.30;;;4.53;;
14903;SDS011;7543;53.148;8.234;2023-09-08T04:29:06;7.03;;;4.03;;
14903;SDS011;7543;53.148;8.234;2023-09-08T04:31:35;5.77;;;4.27;;
14903;SDS011;7543;53.148;8.234;2023-09-08T04:34:05;5.50;;;4.10;;
14903;SDS011;7543;53.148;8.234;2023-09-08T04:36:33;6.80;;;4.20;;
14903;SDS011;7543;53.148;8.234;2023-09-08T04:39:02;6.63;;;4.37;;
14903;SDS011;7543;53.148;8.234;2023-09-08T04:41:31;8.53;;;4.40;;
14903;SDS011;7543;53.148;8.234;2023-09-08T04:43:59;7.33;;;4.10;;
14903;SDS011;7543;53.148;8.234;2023-09-08T04:46:28;5.93;;;4.20;;
14903;SDS011;7543;53.148;8.234;2023-09-08T04:48:56;6.90;;;4.50;;
14903;SDS011;7543;53.148;8.234;2023-09-08T04:51:26;7.20;;;4.30;;
14903;SDS011;7543;53.148;8.234;2023-09-08T04:53:54;7.43;;;4.30;;
14903;SDS011;7543;53.148;8.234;2023-09-08T04:56:23;6.57;;;4.40;;
14903;SDS011;7543;53.148;8.234;2023-09-08T04:58:51;8.10;;;4.93;;
14903;SDS011;7543;53.148;8.234;2023-09-08T05:01:22;4.93;;;3.90;;
14903;SDS011;7543;53.148;8.234;2023-09-08T05:03:50;5.90;;;4.60;;
14903;SDS011;7543;53.148;8.234;2023-09-08T05:06:18;7.43;;;4.70;;
14903;SDS011;7543;53.148;8.234;2023-09-08T05:08:48;8.47;;;4.67;;
14903;SDS011;7543;53.148;8.234;2023-09-08T05:11:17;6.27;;;4.33;;
14903;SDS011;7543;53.148;8.234;2023-09-08T05:13:46;8.20;;;4.20;;
14903;SDS011;7543;53.148;8.234;2023-09-08T05:16:15;8.47;;;4.70;;
14903;SDS011;7543;53.148;8.234;2023-09-08T05:18:50;7.60;;;4.50;;
14903;SDS011;7543;53.148;8.234;2023-09-08T05:21:19;6.30;;;4.37;;
14903;SDS011;7543;53.148;8.234;2023-09-08T05:23:48;5.90;;;4.07;;
14903;SDS011;7543;53.148;8.234;2023-09-08T05:26:17;6.90;;;4.40;;
14903;SDS011;7543;53.148;8.234;2023-09-08T05:28:45;7.27;;;4.87;;
14903;SDS011;7543;53.148;8.234;2023-09-08T05:31:13;8.53;;;4.47;;
14903;SDS011;7543;53.148;8.234;2023-09-08T05:33:42;8.70;;;4.97;;
14903;SDS011;7543;53.148;8.234;2023-09-08T05:36:11;7.77;;;4.70;;
14903;SDS011;7543;53.148;8.234;2023-09-08T05:38:40;6.37;;;4.73;;
14903;SDS011;7543;53.148;8.234;2023-09-08T05:41:09;6.57;;;4.20;;
14903;SDS011;7543;53.148;8.234;2023-09-08T05:43:38;6.47;;;4.70;;
14903;SDS011;7543;53.148;8.234;2023-09-08T05:46:07;7.90;;;4.80;;
14903;SDS011;7543;53.148;8.234;2023-09-08T05:48:36;7.13;;;4.80;;
14903;SDS011;7543;53.148;8.234;2023-09-08T05:51:04;9.57;;;4.60;;
14903;SDS011;7543;53.148;8.234;2023-09-08T05:53:33;8.83;;;4.63;;
14903;SDS011;7543;53.148;8.234;2023-09-08T05:56:02;6.40;;;4.67;;
14903;SDS011;7543;53.148;8.234;2023-09-08T05:58:33;6.57;;;4.70;;
14903;SDS011;7543;53.148;8.234;2023-09-08T06:01:01;10.13;;;4.93;;
14903;SDS011;7543;53.148;8.234;2023-09-08T06:03:31;9.00;;;4.63;;
14903;SDS011;7543;53.148;8.234;2023-09-08T06:05:59;6.80;;;4.70;;
14903;SDS011;7543;53.148;8.234;2023-09-08T06:08:28;7.80;;;5.23;;
14903;SDS011;7543;53.148;8.234;2023-09-08T06:10:56;7.00;;;4.97;;
14903;SDS011;7543;53.148;8.234;2023-09-08T06:13:25;7.80;;;4.83;;
14903;SDS011;7543;53.148;8.234;2023-09-08T06:15:56;6.93;;;4.90;;
14903;SDS011;7543;53.148;8.234;2023-09-08T06:18:27;8.00;;;4.93;;
14903;SDS011;7543;53.148;8.234;2023-09-08T06:20:57;8.77;;;4.93;;
14903;SDS011;7543;53.148;8.234;2023-09-08T06:23:26;9.37;;;5.20;;
14903;SDS011;7543;53.148;8.234;2023-09-08T06:25:56;8.67;;;4.97;;
14903;SDS011;7543;53.148;8.234;2023-09-08T06:28:27;6.77;;;4.77;;
14903;SDS011;7543;53.148;8.234;2023-09-08T06:30:57;8.20;;;5.27;;
14903;SDS011;7543;53.148;8.234;2023-09-08T06:33:25;6.23;;;4.67;;
14903;SDS011;7543;53.148;8.234;2023-09-08T06:35:55;6.70;;;5.07;;
14903;SDS011;7543;53.148;8.234;2023-09-08T06:38:23;9.07;;;5.53;;
14903;SDS011;7543;53.148;8.234;2023-09-08T06:40:52;8.33;;;5.10;;
14903;SDS011;7543;53.148;8.234;2023-09-08T06:43:21;8.37;;;5.23;;
14903;SDS011;7543;53.148;8.234;2023-09-08T06:46:01;8.00;;;5.27;;
14903;SDS011;7543;53.148;8.234;2023-09-08T06:48:29;7.47;;;5.20;;
14903;SDS011;7543;53.148;8.234;2023-09-08T06:50:58;8.93;;;5.10;;
14903;SDS011;7543;53.148;8.234;2023-09-08T06:53:27;6.17;;;4.90;;
14903;SDS011;7543;53.148;8.234;2023-09-08T06:55:55;7.33;;;5.13;;
14903;SDS011;7543;53.148;8.234;2023-09-08T06:58:23;15.67;;;5.10;;
14903;SDS011;7543;53.148;8.234;2023-09-08T07:00:53;8.17;;;5.43;;
14903;SDS011;7543;53.148;8.234;2023-09-08T07:03:24;7.80;;;4.83;;
14903;SDS011;7543;53.148;8.234;2023-09-08T07:05:53;8.33;;;5.57;;
14903;SDS011;7543;53.148;8.234;2023-09-08T07:08:23;5.87;;;4.63;;
14903;SDS011;7543;53.148;8.234;2023-09-08T07:10:52;12.13;;;5.20;;
14903;SDS011;7543;53.148;8.234;2023-09-08T07:13:21;7.23;;;4.87;;
14903;SDS011;7543;53.148;8.234;2023-09-08T07:15:49;8.93;;;5.13;;
14903;SDS011;7543;53.148;8.234;2023-09-08T07:18:18;7.23;;;5.10;;
14903;SDS011;7543;53.148;8.234;2023-09-08T07:20:49;7.90;;;5.37;;
14903;SDS011;7543;53.148;8.234;2023-09-08T07:23:19;8.33;;;5.50;;
14903;SDS011;7543;53.148;8.234;2023-09-08T07:25:47;13.35;;;5.72;;
14903;SDS011;7543;53.148;8.234;2023-09-08T07:28:18;9.40;;;5.50;;
14903;SDS011;7543;53.148;8.234;2023-09-08T07:30:47;7.97;;;5.27;;
14903;SDS011;7543;53.148;8.234;2023-09-08T07:33:15;9.57;;;5.43;;
14903;SDS011;7543;53.148;8.234;2023-09-08T07:35:44;9.38;;;5.18;;
14903;SDS011;7543;53.148;8.234;2023-09-08T07:38:14;7.07;;;5.03;;
14903;SDS011;7543;53.148;8.234;2023-09-08T07:40:42;8.45;;;5.57;;
14903;SDS011;7543;53.148;8.234;2023-09-08T07:43:11;10.00;;;5.37;;
14903;SDS011;7543;53.148;8.234;2023-09-08T07:45:41;8.40;;;5.03;;
14903;SDS011;7543;53.148;8.234;2023-09-08T07:48:09;15.43;;;4.70;;
14903;SDS011;7543;53.148;8.234;2023-09-08T07:50:38;10.13;;;5.40;;
14903;SDS011;7543;53.148;8.234;2023-09-08T07:53:07;7.43;;;5.22;;
14903;SDS011;7543;53.148;8.234;2023-09-08T07:55:37;7.10;;;4.85;;
14903;SDS011;7543;53.148;8.234;2023-09-08T07:58:05;6.15;;;4.72;;
14903;SDS011;7543;53.148;8.234;2023-09-08T08:00:33;6.10;;;4.53;;
14903;SDS011;7543;53.148;8.234;2023-09-08T08:03:02;8.93;;;5.63;;
14903;SDS011;7543;53.148;8.234;2023-09-08T08:05:30;6.88;;;4.63;;
14903;SDS011;7543;53.148;8.234;2023-09-08T08:07:59;9.63;;;4.90;;
14903;SDS011;7543;53.148;8.234;2023-09-08T08:10:27;6.70;;;5.05;;
14903;SDS011;7543;53.148;8.234;2023-09-08T08:12:57;7.03;;;4.90;;
14903;SDS011;7543;53.148;8.234;2023-09-08T08:15:34;5.88;;;4.63;;
14903;SDS011;7543;53.148;8.234;2023-09-08T08:18:03;8.23;;;4.70;;
14903;SDS011;7543;53.148;8.234;2023-09-08T08:20:32;7.05;;;4.88;;
14903;SDS011;7543;53.148;8.234;2023-09-08T08:23:02;6.38;;;4.38;;
14903;SDS011;7543;53.148;8.234;2023-09-08T08:25:33;6.45;;;4.60;;
14903;SDS011;7543;53.148;8.234;2023-09-08T08:28:04;8.70;;;4.88;;
14903;SDS011;7543;53.148;8.234;2023-09-08T08:30:32;8.63;;;4.97;;
14903;SDS011;7543;53.148;8.234;2023-09-08T08:33:02;10.93;;;5.15;;
14903;SDS011;7543;53.148;8.234;2023-09-08T08:35:31;6.53;;;4.57;;
14903;SDS011;7543;53.148;8.234;2023-09-08T08:37:59;6.28;;;4.70;;
14903;SDS011;7543;53.148;8.234;2023-09-08T08:40:27;6.90;;;4.43;;
14903;SDS011;7543;53.148;8.234;2023-09-08T08:42:56;5.22;;;4.10;;
14903;SDS011;7543;53.148;8.234;2023-09-08T08:45:27;5.93;;;4.63;;
14903;SDS011;7543;53.148;8.234;2023-09-08T08:47:57;5.97;;;4.13;;
14903;SDS011;7543;53.148;8.234;2023-09-08T08:50:25;8.18;;;3.78;;
14903;SDS011;7543;53.148;8.234;2023-09-08T08:52:54;7.97;;;4.57;;
14903;SDS011;7543;53.148;8.234;2023-09-08T08:55:23;4.88;;;3.80;;
14903;SDS011;7543;53.148;8.234;2023-09-08T08:57:52;5.55;;;3.92;;
14903;SDS011;7543;53.148;8.234;2023-09-08T09:00:21;6.55;;;4.38;;
14903;SDS011;7543;53.148;8.234;2023-09-08T09:02:51;5.20;;;3.90;;
14903;SDS011;7543;53.148;8.234;2023-09-08T09:05:19;7.43;;;4.38;;
14903;SDS011;7543;53.148;8.234;2023-09-08T09:07:48;6.15;;;4.28;;
14903;SDS011;7543;53.148;8.234;2023-09-08T09:10:16;8.00;;;4.20;;
14903;SDS011;7543;53.148;8.234;2023-09-08T09:12:45;5.45;;;4.00;;
14903;SDS011;7543;53.148;8.234;2023-09-08T09:15:13;11.52;;;3.95;;
14903;SDS011;7543;53.148;8.234;2023-09-08T09:17:43;6.78;;;4.05;;
14903;SDS011;7543;53.148;8.234;2023-09-08T09:20:13;5.00;;;3.60;;
14903;SDS011;7543;53.148;8.234;2023-09-08T09:22:44;9.35;;;4.30;;
14903;SDS011;7543;53.148;8.234;2023-09-08T09:25:20;7.32;;;4.20;;
14903;SDS011;7543;53.148;8.234;2023-09-08T09:27:51;5.20;;;3.80;;
14903;SDS011;7543;53.148;8.234;2023-09-08T09:30:20;7.30;;;4.20;;
14903;SDS011;7543;53.148;8.234;2023-09-08T09:32:50;6.03;;;3.90;;
14903;SDS011;7543;53.148;8.234;2023-09-08T09:35:40;5.18;;;4.03;;
14903;SDS011;7543;53.148;8.234;2023-09-08T09:38:09;5.03;;;3.92;;
14903;SDS011;7543;53.148;8.234;2023-09-08T09:40:38;5.90;;;4.35;;
14903;SDS011;7543;53.148;8.234;2023-09-08T09:43:07;6.22;;;4.00;;
14903;SDS011;7543;53.148;8.234;2023-09-08T09:45:36;5.10;;;3.88;;
14903;SDS011;7543;53.148;8.234;2023-09-08T09:48:05;4.55;;;4.03;;
14903;SDS011;7543;53.148;8.234;2023-09-08T09:50:35;7.78;;;3.70;;
14903;SDS011;7543;53.148;8.234;2023-09-08T09:53:09;8.77;;;3.85;;
14903;SDS011;7543;53.148;8.234;2023-09-08T09:55:39;4.70;;;3.88;;
14903;SDS011;7543;53.148;8.234;2023-09-08T09:58:08;7.25;;;3.90;;
14903;SDS011;7543;53.148;8.234;2023-09-08T10:00:37;7.05;;;3.80;;
14903;SDS011;7543;53.148;8.234;2023-09-08T10:03:07;7.15;;;3.90;;
14903;SDS011;7543;53.148;8.234;2023-09-08T10:05:37;5.38;;;3.50;;
14903;SDS011;7543;53.148;8.234;2023-09-08T10:08:05;5.80;;;3.47;;
14903;SDS011;7543;53.148;8.234;2023-09-08T10:10:35;7.22;;;4.03;;
14903;SDS011;7543;53.148;8.234;2023-09-08T10:13:05;4.22;;;3.63;;
14903;SDS011;7543;53.148;8.234;2023-09-08T10:15:34;7.65;;;3.38;;
14903;SDS011;7543;53.148;8.234;2023-09-08T10:18:03;6.88;;;4.00;;
14903;SDS011;7543;53.148;8.234;2023-09-08T10:20:33;5.10;;;3.88;;
14903;SDS011;7543;53.148;8.234;2023-09-08T10:23:04;4.47;;;3.47;;
14903;SDS011;7543;53.148;8.234;2023-09-08T10:25:39;9.25;;;3.67;;
14903;SDS011;7543;53.148;8.234;2023-09-08T10:28:12;4.93;;;3.67;;
14903;SDS011;7543;53.148;8.234;2023-09-08T10:30:41;5.20;;;3.60;;
14903;SDS011;7543;53.148;8.234;2023-09-08T10:33:09;6.78;;;4.05;;
14903;SDS011;7543;53.148;8.234;2023-09-08T10:35:38;5.78;;;4.22;;
14903;SDS011;7543;53.148;8.234;2023-09-08T10:38:20;7.22;;;3.72;;
14903;SDS011;7543;53.148;8.234;2023-09-08T10:40:51;5.15;;;3.50;;
14903;SDS011;7543;53.148;8.234;2023-09-08T10:43:19;5.32;;;3.53;;
14903;SDS011;7543;53.148;8.234;2023-09-08T10:45:48;4.60;;;3.58;;
14903;SDS011;7543;53.148;8.234;2023-09-08T10:48:16;5.85;;;3.55;;
14903;SDS011;7543;53.148;8.234;2023-09-08T10:50:47;5.45;;;3.70;;
14903;SDS011;7543;53.148;8.234;2023-09-08T10:53:16;4.95;;;3.40;;
14903;SDS011;7543;53.148;8.234;2023-09-08T10:55:45;5.38;;;3.65;;
14903;SDS011;7543;53.148;8.234;2023-09-08T10:58:30;4.53;;;3.63;;
14903;SDS011;7543;53.148;8.234;2023-09-08T11:01:00;5.13;;;3.90;;
14903;SDS011;7543;53.148;8.234;2023-09-08T11:03:42;5.10;;;3.17;;
14903;SDS011;7543;53.148;8.234;2023-09-08T11:06:12;5.72;;;3.38;;
14903;SDS011;7543;53.148;8.234;2023-09-08T11:08:41;7.72;;;3.28;;
14903;SDS011;7543;53.148;8.234;2023-09-08T11:11:10;5.03;;;3.45;;
14903;SDS011;7543;53.148;8.234;2023-09-08T11:13:40;5.75;;;3.10;;
14903;SDS011;7543;53.148;8.234;2023-09-08T11:16:08;5.53;;;3.20;;
14903;SDS011;7543;53.148;8.234;2023-09-08T11:18:37;5.20;;;3.50;;
14903;SDS011;7543;53.148;8.234;2023-09-08T11:21:07;5.47;;;3.50;;
14903;SDS011;7543;53.148;8.234;2023-09-08T11:23:36;4.65;;;3.63;;
14903;SDS011;7543;53.148;8.234;2023-09-08T11:26:04;6.18;;;3.47;;
14903;SDS011;7543;53.148;8.234;2023-09-08T11:28:34;3.75;;;3.15;;
14903;SDS011;7543;53.148;8.234;2023-09-08T11:31:05;4.22;;;3.47;;
14903;SDS011;7543;53.148;8.234;2023-09-08T11:33:33;5.15;;;3.50;;
14903;SDS011;7543;53.148;8.234;2023-09-08T11:36:11;4.43;;;2.95;;
14903;SDS011;7543;53.148;8.234;2023-09-08T11:38:42;4.03;;;3.28;;
14903;SDS011;7543;53.148;8.234;2023-09-08T11:41:12;3.78;;;3.05;;
14903;SDS011;7543;53.148;8.234;2023-09-08T11:43:40;3.55;;;2.92;;
14903;SDS011;7543;53.148;8.234;2023-09-08T11:46:10;3.80;;;2.92;;
14903;SDS011;7543;53.148;8.234;2023-09-08T11:48:38;4.38;;;2.90;;
14903;SDS011;7543;53.148;8.234;2023-09-08T11:51:07;5.22;;;3.25;;
14903;SDS011;7543;53.148;8.234;2023-09-08T11:53:35;5.20;;;2.90;;
14903;SDS011;7543;53.148;8.234;2023-09-08T11:56:05;5.95;;;3.15;;
14903;SDS011;7543;53.148;8.234;2023-09-08T11:58:33;5.75;;;3.28;;
14903;SDS011;7543;53.148;8.234;2023-09-08T12:01:02;4.55;;;3.10;;
14903;SDS011;7543;53.148;8.234;2023-09-08T12:03:32;5.93;;;2.80;;
14903;SDS011;7543;53.148;8.234;2023-09-08T12:06:00;3.15;;;2.60;;
14903;SDS011;7543;53.148;8.234;2023-09-08T12:08:30;4.20;;;3.00;;
14903;SDS011;7543;53.148;8.234;2023-09-08T12:11:00;3.95;;;2.95;;
14903;SDS011;7543;53.148;8.234;2023-09-08T12:13:28;3.85;;;2.80;;
14903;SDS011;7543;53.148;8.234;2023-09-08T12:15:56;5.55;;;2.58;;
14903;SDS011;7543;53.148;8.234;2023-09-08T12:18:38;6.15;;;3.05;;
14903;SDS011;7543;53.148;8.234;2023-09-08T12:21:07;6.07;;;2.63;;
14903;SDS011;7543;53.148;8.234;2023-09-08T12:23:46;6.10;;;3.10;;
14903;SDS011;7543;53.148;8.234;2023-09-08T12:26:16;4.32;;;2.60;;
14903;SDS011;7543;53.148;8.234;2023-09-08T12:28:44;3.05;;;2.60;;
14903;SDS011;7543;53.148;8.234;2023-09-08T12:31:13;5.10;;;2.45;;
14903;SDS011;7543;53.148;8.234;2023-09-08T12:33:43;3.83;;;2.60;;
14903;SDS011;7543;53.148;8.234;2023-09-08T12:36:12;3.20;;;2.65;;
14903;SDS011;7543;53.148;8.234;2023-09-08T12:38:41;3.55;;;2.70;;
14903;SDS011;7543;53.148;8.234;2023-09-08T12:41:14;4.45;;;2.80;;
14903;SDS011;7543;53.148;8.234;2023-09-08T12:43:43;3.00;;;2.70;;
14903;SDS011;7543;53.148;8.234;2023-09-08T12:46:12;4.75;;;2.60;;
14903;SDS011;7543;53.148;8.234;2023-09-08T12:48:40;3.80;;;2.67;;
14903;SDS011;7543;53.148;8.234;2023-09-08T12:51:10;8.00;;;2.80;;
14903;SDS011;7543;53.148;8.234;2023-09-08T12:53:38;8.30;;;2.80;;
14903;SDS011;7543;53.148;8.234;2023-09-08T12:56:07;4.25;;;2.70;;
14903;SDS011;7543;53.148;8.234;2023-09-08T12:58:35;3.35;;;2.58;;
14903;SDS011;7543;53.148;8.234;2023-09-08T13:01:03;3.80;;;2.90;;
14903;SDS011;7543;53.148;8.234;2023-09-08T13:03:33;3.80;;;2.85;;
14903;SDS011;7543;53.148;8.234;2023-09-08T13:06:02;4.28;;;2.60;;
14903;SDS011;7543;53.148;8.234;2023-09-08T13:08:31;3.50;;;2.50;;
14903;SDS011;7543;53.148;8.234;2023-09-08T13:11:00;3.03;;;2.67;;
14903;SDS011;7543;53.148;8.234;2023-09-08T13:13:29;3.47;;;2.47;;
14903;SDS011;7543;53.148;8.234;2023-09-08T13:15:58;4.93;;;2.85;;
14903;SDS011;7543;53.148;8.234;2023-09-08T13:18:26;3.03;;;2.60;;
14903;SDS011;7543;53.148;8.234;2023-09-08T13:20:54;4.13;;;2.45;;
14903;SDS011;7543;53.148;8.234;2023-09-08T13:23:23;3.30;;;2.70;;
14903;SDS011;7543;53.148;8.234;2023-09-08T13:25:52;2.88;;;2.55;;
14903;SDS011;7543;53.148;8.234;2023-09-08T13:28:21;3.78;;;2.88;;
14903;SDS011;7543;53.148;8.234;2023-09-08T13:30:49;5.22;;;2.40;;
14903;SDS011;7543;53.148;8.234;2023-09-08T13:33:18;4.78;;;2.63;;
14903;SDS011;7543;53.148;8.234;2023-09-08T13:35:46;5.30;;;2.78;;
14903;SDS011;7543;53.148;8.234;2023-09-08T13:38:15;4.55;;;2.60;;
14903;SDS011;7543;53.148;8.234;2023-09-08T13:40:43;3.88;;;2.97;;
14903;SDS011;7543;53.148;8.234;2023-09-08T13:43:13;4.07;;;2.60;;
14903;SDS011;7543;53.148;8.234;2023-09-08T13:45:42;4.05;;;2.58;;
14903;SDS011;7543;53.148;8.234;2023-09-08T13:48:10;3.35;;;2.60;;
14903;SDS011;7543;53.148;8.234;2023-09-08T13:50:38;3.60;;;2.60;;
14903;SDS011;7543;53.148;8.234;2023-09-08T13:53:07;8.43;;;2.50;;
14903;SDS011;7543;53.148;8.234;2023-09-08T13:55:35;4.10;;;2.75;;
14903;SDS011;7543;53.148;8.234;2023-09-08T13:58:04;5.57;;;3.03;;
14903;SDS011;7543;53.148;8.234;2023-09-08T14:00:33;4.50;;;2.47;;
14903;SDS011;7543;53.148;8.234;2023-09-08T14:03:02;3.22;;;2.60;;
14903;SDS011;7543;53.148;8.234;2023-09-08T14:05:30;3.28;;;2.55;;
14903;SDS011;7543;53.148;8.234;2023-09-08T14:07:59;3.95;;;2.58;;
14903;SDS011;7543;53.148;8.234;2023-09-08T14:10:27;4.03;;;2.47;;
14903;SDS011;7543;53.148;8.234;2023-09-08T14:12:55;6.78;;;2.97;;
14903;SDS011;7543;53.148;8.234;2023-09-08T14:15:24;4.22;;;2.55;;
14903;SDS011;7543;53.148;8.234;2023-09-08T14:17:53;3.47;;;2.65;;
14903;SDS011;7543;53.148;8.234;2023-09-08T14:20:22;3.92;;;2.78;;
14903;SDS011;7543;53.148;8.234;2023-09-08T14:22:50;3.10;;;2.38;;
14903;SDS011;7543;53.148;8.234;2023-09-08T14:25:19;3.83;;;2.67;;
14903;SDS011;7543;53.148;8.234;2023-09-08T14:27:47;6.13;;;2.92;;
14903;SDS011;7543;53.148;8.234;2023-09-08T14:30:16;4.20;;;2.92;;
14903;SDS011;7543;53.148;8.234;2023-09-08T14:32:44;3.58;;;2.72;;
14903;SDS011;7543;53.148;8.234;2023-09-08T14:35:14;3.90;;;2.75;;
14903;SDS011;7543;53.148;8.234;2023-09-08T14:37:43;3.78;;;2.72;;
14903;SDS011;7543;53.148;8.234;2023-09-08T14:40:11;4.75;;;2.78;;
14903;SDS011;7543;53.148;8.234;2023-09-08T14:42:40;3.15;;;2.53;;
14903;SDS011;7543;53.148;8.234;2023-09-08T14:45:09;3.15;;;2.53;;
14903;SDS011;7543;53.148;8.234;2023-09-08T14:47:38;4.82;;;2.70;;
14903;SDS011;7543;53.148;8.234;2023-09-08T14:50:06;3.03;;;2.72;;
14903;SDS011;7543;53.148;8.234;2023-09-08T14:52:37;4.03;;;2.78;;
14903;SDS011;7543;53.148;8.234;2023-09-08T14:55:07;3.72;;;2.75;;
14903;SDS011;7543;53.148;8.234;2023-09-08T14:57:36;3.95;;;2.88;;
14903;SDS011;7543;53.148;8.234;2023-09-08T15:00:04;4.22;;;2.72;;
14903;SDS011;7543;53.148;8.234;2023-09-08T15:02:34;5.00;;;2.70;;
14903;SDS011;7543;53.148;8.234;2023-09-08T15:05:03;2.78;;;2.50;;
14903;SDS011;7543;53.148;8.234;2023-09-08T15:07:31;3.17;;;2.55;;
14903;SDS011;7543;53.148;8.234;2023-09-08T15:10:01;3.20;;;2.67;;
14903;SDS011;7543;53.148;8.234;2023-09-08T15:12:31;3.10;;;2.58;;